P/v San Francisco — WDA3425 — position and weather

sailwx.info

Track history (hours):
 
Tides and Currents Weather Stations Pressure Air Temp Water Temp Dewpoint Dewpoint Depression Visibility Wind Speed Wind Dir Waves Ship Positions

P/v San Francisco

Owner: San Francisco Bar Pilots Benevolent and Protective, SAN FRANCISCO, CA. More information available from US FCC via Universal Licensing System and Coast Guard Vessel Documentation Center.

Last reported at 2017-Nov-15 18:21 UTC. Time now 2017-Nov-20 00:27 UTC.
Position N 37°49' W 122°25'.

Length 33 m.

Type: Pilot. MMSI: 366798310.

Date/timePositionNaut miles runAvg speedWind from/ knotsBaromVisibWave heightAir tempDewpointWater temp
2017-Nov-15 18:21N 37°49' W 122°25'2 5.0
2017-Nov-15 18:00N 37°48' W 122°24'611.7
2017-Nov-15 17:30N 37°48' W 122°31'713.3
2017-Nov-15 17:00N 37°45' W 122°39'2 2.7
2017-Nov-15 16:18N 37°45' W 122°41'1 2.3
2017-Nov-15 16:00N 37°45' W 122°40'1 2.2
2017-Nov-15 15:31N 37°44' W 122°41'1 1.9
2017-Nov-15 14:59N 37°45' W 122°41'1 2.3
2017-Nov-15 14:27N 37°45' W 122°39'2 3.5
2017-Nov-15 14:00N 37°46' W 122°39'1 2.5
2017-Nov-15 13:30N 37°47' W 122°41'0 0.7
2017-Nov-15 12:58N 37°46' W 122°41'1 0.5
2017-Nov-15 12:01N 37°46' W 122°42'0 5.2
2017-Nov-15 11:57N 37°46' W 122°42'1 3.2
2017-Nov-15 11:30N 37°45' W 122°41'1 1.3
2017-Nov-15 11:00N 37°45' W 122°41'0 0.6
2017-Nov-15 10:30N 37°45' W 122°41'0 0.8
2017-Nov-15 10:00N 37°45' W 122°41'1 1.7
2017-Nov-15 09:30N 37°45' W 122°40'1 1.8
2017-Nov-15 09:00N 37°45' W 122°39'0 0.9
2017-Nov-15 08:29N 37°46' W 122°39'1 1.1
2017-Nov-15 07:57N 37°46' W 122°39'1 2.2
2017-Nov-15 07:30N 37°47' W 122°41'1 2.3
2017-Nov-15 06:58N 37°47' W 122°42'1 2.5
2017-Nov-15 06:30N 37°47' W 122°41'2 2.3
2017-Nov-15 05:46N 37°46' W 122°39'2 5.9
2017-Nov-15 05:30N 37°46' W 122°41'1 1.5
2017-Nov-15 05:01N 37°47' W 122°40'1 2.0
2017-Nov-15 04:30N 37°46' W 122°39'1 1.8
2017-Nov-15 04:01N 37°47' W 122°40'1 2.4
2017-Nov-15 03:30N 37°47' W 122°41'2 3.4
2017-Nov-15 03:00N 37°45' W 122°40'1 2.7
2017-Nov-15 02:30N 37°44' W 122°40'1 2.1
2017-Nov-15 02:00N 37°45' W 122°40'1 1.5
2017-Nov-15 01:29N 37°46' W 122°40'0 0.7
2017-Nov-15 01:00N 37°46' W 122°40'2 2.7
2017-Nov-15 00:24N 37°45' W 122°39'1 2.4
2017-Nov-14 23:56N 37°45' W 122°40'0 0.9
2017-Nov-14 23:30N 37°45' W 122°41'1 0.6
2017-Nov-14 22:34N 37°45' W 122°40'0 2.8
2017-Nov-14 22:25N 37°45' W 122°40'0 1.0
2017-Nov-14 21:59N 37°45' W 122°41'1 2.3
2017-Nov-14 21:27N 37°45' W 122°39'1 1.9
2017-Nov-14 20:59N 37°45' W 122°40'1 1.6
2017-Nov-14 20:13N 37°46' W 122°40'2 7.5
2017-Nov-14 20:00N 37°46' W 122°42'0 0.5
2017-Nov-14 19:27N 37°46' W 122°42'0 0.3
2017-Nov-14 18:57N 37°46' W 122°42'1 2.8
2017-Nov-14 18:30N 37°46' W 122°41'1 2.8
2017-Nov-14 18:00N 37°46' W 122°39'1 1.2
2017-Nov-14 17:30N 37°46' W 122°40'1 2.2
2017-Nov-14 16:59N 37°46' W 122°41'1 1.1
2017-Nov-14 16:29N 37°46' W 122°42'2 3.9
2017-Nov-14 16:00N 37°46' W 122°40'0 0.9
2017-Nov-14 15:30N 37°46' W 122°39'1 2.1
2017-Nov-14 15:00N 37°46' W 122°41'1 1.5
2017-Nov-14 14:30N 37°47' W 122°41'1 2.6
2017-Nov-14 14:00N 37°46' W 122°40'1 2.0
2017-Nov-14 13:30N 37°45' W 122°40'1 2.9
2017-Nov-14 13:00N 37°46' W 122°40'3 4.8
2017-Nov-14 12:28N 37°44' W 122°41'1 1.6
2017-Nov-14 11:43N 37°44' W 122°42'2 7.6
2017-Nov-14 11:30N 37°46' W 122°42'1 1.4
2017-Nov-14 10:55N 37°46' W 122°41'1 3.1
2017-Nov-14 10:29N 37°46' W 122°40'1 1.4
2017-Nov-14 10:00N 37°46' W 122°39'1 1.7
2017-Nov-14 09:30N 37°46' W 122°40'3 2.5
2017-Nov-14 08:28N 37°45' W 122°43'1 2.6
2017-Nov-14 08:00N 37°45' W 122°41'1 2.6
2017-Nov-14 07:30N 37°46' W 122°40'1 1.9
2017-Nov-14 06:59N 37°46' W 122°39'1 2.5
2017-Nov-14 06:25N 37°46' W 122°40'0 0.0
2017-Nov-14 06:00N 37°46' W 122°40'1 2.1
2017-Nov-14 05:29N 37°45' W 122°39'1 1.3
2017-Nov-14 04:57N 37°45' W 122°40'1 2.8
2017-Nov-14 04:30N 37°45' W 122°41'1 0.6
2017-Nov-14 03:33N 37°45' W 122°41'1 6.8
2017-Nov-14 03:26N 37°46' W 122°40'1 2.2
2017-Nov-14 03:00N 37°47' W 122°40'0 1.0
2017-Nov-14 02:30N 37°46' W 122°40'1 2.9
2017-Nov-14 02:00N 37°45' W 122°41'1 1.7
2017-Nov-14 01:28N 37°45' W 122°40'0 0.6
2017-Nov-14 01:01N 37°45' W 122°40'2 3.6
2017-Nov-14 00:30N 37°44' W 122°42'1 1.6
2017-Nov-13 23:59N 37°44' W 122°41'1 2.1
2017-Nov-13 23:28N 37°45' W 122°39'0 0.6
2017-Nov-13 23:00N 37°44' W 122°40'1 2.4
2017-Nov-13 22:28N 37°45' W 122°41'2 3.6
2017-Nov-13 22:00N 37°47' W 122°40'1 0.0
2017-Nov-13 02:00N 37°46' W 122°40'0 0.9
2017-Nov-13 01:30N 37°46' W 122°41'1 2.8
2017-Nov-13 00:59N 37°45' W 122°41'1 2.8
2017-Nov-13 00:30N 37°46' W 122°39'0 0.9
2017-Nov-13 00:00N 37°46' W 122°39'1 2.8
2017-Nov-12 23:30N 37°45' W 122°40'1 1.5
2017-Nov-12 22:58N 37°46' W 122°41'1 1.0
2017-Nov-12 22:16N 37°46' W 122°40'1 3.3
2017-Nov-12 22:00N 37°45' W 122°40'1 2.1
2017-Nov-12 21:30N 37°46' W 122°40'0 0.2
2017-Nov-12 21:00N 37°46' W 122°40'0 1.0
2017-Nov-12 20:30N 37°45' W 122°39'2 2.5
2017-Nov-12 19:44N 37°46' W 122°41'1 2.5
2017-Nov-12 19:30N 37°47' W 122°42'2 3.3
2017-Nov-12 18:57N 37°46' W 122°40'1 2.6
2017-Nov-12 18:29N 37°46' W 122°38'1 2.4
2017-Nov-12 17:59N 37°45' W 122°40'1 2.6
2017-Nov-12 17:27N 37°45' W 122°42'1 2.6
2017-Nov-12 16:58N 37°46' W 122°40'0 1.0
2017-Nov-12 16:28N 37°45' W 122°41'1 1.6
2017-Nov-12 15:58N 37°45' W 122°41'1 3.2
2017-Nov-12 15:30N 37°46' W 122°40'1 1.0
2017-Nov-12 15:00N 37°46' W 122°40'1 1.9
2017-Nov-12 14:30N 37°46' W 122°39'2 3.2
2017-Nov-12 14:00N 37°46' W 122°41'1 1.1
2017-Nov-12 13:11N 37°45' W 122°41'1 1.9
2017-Nov-12 12:52N 37°45' W 122°41'1 3.1
2017-Nov-12 12:30N 37°46' W 122°40'1 1.8
2017-Nov-12 12:00N 37°47' W 122°39'1 2.3
2017-Nov-12 11:30N 37°47' W 122°40'1 2.5
2017-Nov-12 10:58N 37°46' W 122°39'1 2.1
2017-Nov-12 10:30N 37°45' W 122°39'1 1.8
2017-Nov-12 09:59N 37°46' W 122°40'1 1.5
2017-Nov-12 09:30N 37°46' W 122°40'0 0.1
2017-Nov-12 09:00N 37°46' W 122°40'2 2.0
2017-Nov-12 08:03N 37°47' W 122°42'0 2.5
2017-Nov-12 08:00N 37°47' W 122°42'2 2.5
2017-Nov-12 07:24N 37°46' W 122°40'2 3.6
2017-Nov-12 06:57N 37°45' W 122°38'1 1.3
2017-Nov-12 06:28N 37°45' W 122°39'2 3.1
2017-Nov-12 05:53N 37°45' W 122°41'2 4.2
2017-Nov-12 05:30N 37°45' W 122°39'1 1.3
2017-Nov-12 05:00N 37°45' W 122°39'2 3.5
2017-Nov-12 04:30N 37°46' W 122°40'1 2.3
2017-Nov-12 03:58N 37°47' W 122°42'1 2.7
2017-Nov-12 03:30N 37°46' W 122°40'1 2.5
2017-Nov-12 03:00N 37°45' W 122°39'1 1.6
2017-Nov-12 02:30N 37°46' W 122°40'1 1.1
2017-Nov-12 02:00N 37°46' W 122°40'1 1.0
2017-Nov-12 01:30N 37°46' W 122°40'1 2.0
2017-Nov-12 01:00N 37°46' W 122°41'1 1.3
2017-Nov-12 00:29N 37°46' W 122°40'1 2.5
2017-Nov-12 00:00N 37°46' W 122°39'2 1.9
2017-Nov-11 23:12N 37°45' W 122°40'0 1.5
2017-Nov-11 22:58N 37°45' W 122°40'1 1.3
2017-Nov-11 22:31N 37°45' W 122°41'1 2.5
2017-Nov-11 21:59N 37°46' W 122°41'1 1.8
2017-Nov-11 21:24N 37°45' W 122°40'1 2.5
2017-Nov-11 20:58N 37°46' W 122°40'1 1.8
2017-Nov-11 20:28N 37°45' W 122°40'1 2.5
2017-Nov-11 19:53N 37°45' W 122°42'0 0.1
2017-Nov-11 19:14N 37°45' W 122°42'1 2.6
2017-Nov-11 18:57N 37°45' W 122°41'1 1.9
2017-Nov-11 18:19N 37°44' W 122°42'0 0.8
2017-Nov-11 17:59N 37°44' W 122°41'2 2.4
2017-Nov-11 17:21N 37°45' W 122°42'0 0.3
2017-Nov-11 16:59N 37°45' W 122°42'2 2.6
2017-Nov-11 16:24N 37°46' W 122°41'1 2.5
2017-Nov-11 16:00N 37°46' W 122°40'1 1.5
2017-Nov-11 15:31N 37°46' W 122°40'1 1.4
2017-Nov-11 15:00N 37°47' W 122°40'0 0.4
2017-Nov-11 14:30N 37°47' W 122°40'1 2.9
2017-Nov-11 14:00N 37°46' W 122°39'2 2.7
2017-Nov-11 13:22N 37°44' W 122°40'1 1.9
2017-Nov-11 12:53N 37°45' W 122°41'1 1.7
2017-Nov-11 12:31N 37°45' W 122°40'1 1.7
2017-Nov-11 12:00N 37°45' W 122°41'1 2.2
2017-Nov-11 11:29N 37°46' W 122°42'1 2.1
2017-Nov-11 11:00N 37°47' W 122°41'1 2.3
2017-Nov-11 10:29N 37°46' W 122°40'1 1.8
2017-Nov-11 09:59N 37°45' W 122°40'1 0.6
2017-Nov-11 08:50N 37°45' W 122°41'1 3.0
2017-Nov-11 08:30N 37°45' W 122°40'1 1.1
2017-Nov-11 07:58N 37°46' W 122°39'1 1.7
2017-Nov-11 07:30N 37°46' W 122°40'1 1.5
2017-Nov-11 06:58N 37°47' W 122°41'1 1.2
2017-Nov-11 06:27N 37°47' W 122°41'1 2.4
2017-Nov-11 05:57N 37°46' W 122°40'2 3.9
2017-Nov-11 05:27N 37°45' W 122°38'1 2.0
2017-Nov-11 05:00N 37°45' W 122°39'0 0.9
2017-Nov-11 04:30N 37°45' W 122°39'1 2.0
2017-Nov-11 03:53N 37°46' W 122°39'1 1.4
2017-Nov-11 03:00N 37°45' W 122°40'0 0.4
2017-Nov-11 02:30N 37°45' W 122°40'1 0.7
2017-Nov-11 01:45N 37°45' W 122°41'1 3.8
2017-Nov-11 01:30N 37°45' W 122°40'1 0.9
2017-Nov-11 00:56N 37°45' W 122°39'2 1.6
2017-Nov-10 23:54N 37°45' W 122°41'1 2.1
2017-Nov-10 23:27N 37°46' W 122°40'1 1.7
2017-Nov-10 23:00N 37°46' W 122°39'1 1.5
2017-Nov-10 22:30N 37°46' W 122°40'3 4.7
2017-Nov-10 21:53N 37°44' W 122°42'2 4.1
2017-Nov-10 21:26N 37°45' W 122°40'1 0.6
2017-Nov-10 19:30N 37°46' W 122°40'1 2.0
2017-Nov-10 18:59N 37°47' W 122°40'2 1.2
2017-Nov-10 17:23N 37°45' W 122°41'1 2.2
2017-Nov-10 17:00N 37°45' W 122°40'1 2.7
2017-Nov-10 16:30N 37°46' W 122°38'510.8
2017-Nov-10 16:00N 37°48' W 122°32'3 6.1
2017-Nov-10 15:30N 37°47' W 122°36'4 6.3
2017-Nov-10 14:56N 37°45' W 122°40'1 1.3
2017-Nov-10 14:30N 37°45' W 122°39'1 2.6
2017-Nov-10 14:00N 37°46' W 122°39'2 2.6
2017-Nov-10 13:19N 37°45' W 122°41'1 2.0
2017-Nov-10 13:00N 37°45' W 122°40'1 1.6
2017-Nov-10 12:30N 37°45' W 122°39'2 3.4
2017-Nov-10 11:48N 37°44' W 122°41'2 3.1
2017-Nov-10 11:12N 37°45' W 122°40'1 2.1
2017-Nov-10 10:57N 37°46' W 122°40'0 0.7
2017-Nov-10 10:29N 37°45' W 122°40'1 0.9
2017-Nov-10 09:54N 37°45' W 122°40'1 2.9
2017-Nov-10 09:30N 37°44' W 122°41'2 3.7
2017-Nov-10 09:00N 37°45' W 122°39'0 0.8
2017-Nov-10 08:30N 37°45' W 122°40'1 2.9
2017-Nov-10 07:59N 37°44' W 122°41'1 2.0
2017-Nov-10 07:30N 37°45' W 122°41'714.7
2017-Nov-10 07:00N 37°48' W 122°32'3 5.3
2017-Nov-10 06:30N 37°49' W 122°29'611.8
2017-Nov-10 06:00N 37°47' W 122°36'3 6.8
2017-Nov-10 05:30N 37°45' W 122°40'2 2.4
2017-Nov-10 04:49N 37°44' W 122°41'2 6.6
2017-Nov-10 04:30N 37°46' W 122°40'2 3.3
2017-Nov-10 03:53N 37°44' W 122°41'1 1.5
2017-Nov-10 03:26N 37°44' W 122°41'1 2.0
2017-Nov-10 02:41N 37°46' W 122°40'0 1.2
2017-Nov-10 02:26N 37°46' W 122°40'2 5.0
2017-Nov-10 02:01N 37°44' W 122°42'2 2.5
2017-Nov-10 01:16N 37°46' W 122°40'1 1.8
2017-Nov-10 00:38N 37°44' W 122°40'0 2.6
2017-Nov-10 00:30N 37°45' W 122°39'1 1.4
2017-Nov-09 23:59N 37°45' W 122°39'2 2.8
2017-Nov-09 23:24N 37°46' W 122°41'0 0.9
2017-Nov-09 22:54N 37°46' W 122°41'1 1.9
2017-Nov-09 22:30N 37°46' W 122°40'1 1.0
2017-Nov-09 21:58N 37°46' W 122°40'1 1.8
2017-Nov-09 21:28N 37°45' W 122°41'1 2.3
2017-Nov-09 21:01N 37°46' W 122°40'5 9.8
2017-Nov-09 20:30N 37°47' W 122°34'611.5
2017-Nov-09 20:01N 37°49' W 122°27'3 5.8
2017-Nov-09 19:31N 37°48' W 122°24'0 0.0
2017-Nov-09 19:01N 37°48' W 122°24'0 0.0
2017-Nov-09 18:31N 37°48' W 122°24'0 0.0
2017-Nov-09 18:00N 37°48' W 122°24'1 3.0
2017-Nov-09 17:30N 37°49' W 122°23'1 1.8
2017-Nov-09 17:00N 37°50' W 122°24'2 4.3
2017-Nov-09 16:31N 37°48' W 122°24'0 0.0
2017-Nov-09 16:01N 37°48' W 122°24'0 0.0
2017-Nov-09 15:31N 37°48' W 122°24'0 0.0
2017-Nov-09 15:01N 37°48' W 122°24'0 0.0
2017-Nov-09 14:31N 37°48' W 122°24'0 0.0
2017-Nov-09 14:01N 37°48' W 122°24'0 0.0
2017-Nov-09 13:30N 37°48' W 122°24'0 0.0
2017-Nov-09 13:00N 37°48' W 122°24'0 0.0
2017-Nov-09 12:30N 37°48' W 122°24'0 0.0
2017-Nov-09 12:00N 37°48' W 122°24'0 0.0
2017-Nov-09 11:31N 37°48' W 122°24'0 0.0
2017-Nov-09 11:01N 37°48' W 122°24'0 0.0
2017-Nov-09 10:31N 37°48' W 122°24'0 0.0
2017-Nov-09 10:01N 37°48' W 122°24'0 0.0
2017-Nov-09 09:31N 37°48' W 122°24'0 0.0
2017-Nov-09 09:01N 37°48' W 122°24'0 0.0
2017-Nov-09 08:30N 37°48' W 122°24'0 0.0
2017-Nov-09 08:00N 37°48' W 122°24'0 0.0
2017-Nov-09 07:31N 37°48' W 122°24'0 0.0
2017-Nov-09 07:00N 37°48' W 122°24'0 0.0
2017-Nov-09 06:30N 37°48' W 122°24'0 0.0
2017-Nov-09 06:00N 37°48' W 122°24'0 0.0
2017-Nov-09 05:30N 37°48' W 122°24'0 0.0
2017-Nov-09 05:00N 37°48' W 122°24'0 0.0
2017-Nov-09 04:31N 37°48' W 122°24'0 0.0
2017-Nov-09 04:01N 37°48' W 122°24'0 0.0
2017-Nov-09 03:31N 37°48' W 122°24'0 0.0
2017-Nov-09 03:00N 37°48' W 122°24'0 0.0
2017-Nov-09 02:30N 37°48' W 122°24'0 0.0
2017-Nov-09 02:01N 37°48' W 122°24'0 0.0
2017-Nov-09 01:30N 37°48' W 122°24'0 0.0
2017-Nov-09 01:01N 37°48' W 122°24'0 0.0
2017-Nov-09 00:30N 37°48' W 122°24'0 0.0
2017-Nov-09 00:00N 37°48' W 122°24'0 0.0
2017-Nov-08 23:30N 37°48' W 122°24'0 0.0
2017-Nov-08 23:01N 37°48' W 122°24'0 0.0
2017-Nov-08 22:30N 37°48' W 122°24'0 0.0
2017-Nov-08 22:01N 37°48' W 122°24'0 0.0
2017-Nov-08 21:30N 37°48' W 122°24'  
Track history (hours):
 
Tides and Currents Weather Stations Pressure Air Temp Water Temp Dewpoint Dewpoint Depression Visibility Wind Speed Wind Dir Waves Ship Positions

P/v San Francisco

Owner: San Francisco Bar Pilots Benevolent and Protective, SAN FRANCISCO, CA. More information available from US FCC via Universal Licensing System and Coast Guard Vessel Documentation Center.

Last reported at 2017-Nov-15 18:21 UTC. Time now 2017-Nov-20 00:27 UTC.
Position N 37°49' W 122°25'.

Length 33 m.

Type: Pilot. MMSI: 366798310.

Date/timePositionNaut miles runAvg speedWind from/ knotsBaromVisibWave heightAir tempDewpointWater temp
2017-Nov-15 18:21N 37°49' W 122°25'2 5.0
2017-Nov-15 18:00N 37°48' W 122°24'611.7
2017-Nov-15 17:30N 37°48' W 122°31'713.3
2017-Nov-15 17:00N 37°45' W 122°39'2 2.7
2017-Nov-15 16:18N 37°45' W 122°41'1 2.3
2017-Nov-15 16:00N 37°45' W 122°40'1 2.2
2017-Nov-15 15:31N 37°44' W 122°41'1 1.9
2017-Nov-15 14:59N 37°45' W 122°41'1 2.3
2017-Nov-15 14:27N 37°45' W 122°39'2 3.5
2017-Nov-15 14:00N 37°46' W 122°39'1 2.5
2017-Nov-15 13:30N 37°47' W 122°41'0 0.7
2017-Nov-15 12:58N 37°46' W 122°41'1 0.5
2017-Nov-15 12:01N 37°46' W 122°42'0 5.2
2017-Nov-15 11:57N 37°46' W 122°42'1 3.2
2017-Nov-15 11:30N 37°45' W 122°41'1 1.3
2017-Nov-15 11:00N 37°45' W 122°41'0 0.6
2017-Nov-15 10:30N 37°45' W 122°41'0 0.8
2017-Nov-15 10:00N 37°45' W 122°41'1 1.7
2017-Nov-15 09:30N 37°45' W 122°40'1 1.8
2017-Nov-15 09:00N 37°45' W 122°39'0 0.9
2017-Nov-15 08:29N 37°46' W 122°39'1 1.1
2017-Nov-15 07:57N 37°46' W 122°39'1 2.2
2017-Nov-15 07:30N 37°47' W 122°41'1 2.3
2017-Nov-15 06:58N 37°47' W 122°42'1 2.5
2017-Nov-15 06:30N 37°47' W 122°41'2 2.3
2017-Nov-15 05:46N 37°46' W 122°39'2 5.9
2017-Nov-15 05:30N 37°46' W 122°41'1 1.5
2017-Nov-15 05:01N 37°47' W 122°40'1 2.0
2017-Nov-15 04:30N 37°46' W 122°39'1 1.8
2017-Nov-15 04:01N 37°47' W 122°40'1 2.4
2017-Nov-15 03:30N 37°47' W 122°41'2 3.4
2017-Nov-15 03:00N 37°45' W 122°40'1 2.7
2017-Nov-15 02:30N 37°44' W 122°40'1 2.1
2017-Nov-15 02:00N 37°45' W 122°40'1 1.5
2017-Nov-15 01:29N 37°46' W 122°40'0 0.7
2017-Nov-15 01:00N 37°46' W 122°40'2 2.7
2017-Nov-15 00:24N 37°45' W 122°39'1 2.4
2017-Nov-14 23:56N 37°45' W 122°40'0 0.9
2017-Nov-14 23:30N 37°45' W 122°41'1 0.6
2017-Nov-14 22:34N 37°45' W 122°40'0 2.8
2017-Nov-14 22:25N 37°45' W 122°40'0 1.0
2017-Nov-14 21:59N 37°45' W 122°41'1 2.3
2017-Nov-14 21:27N 37°45' W 122°39'1 1.9
2017-Nov-14 20:59N 37°45' W 122°40'1 1.6
2017-Nov-14 20:13N 37°46' W 122°40'2 7.5
2017-Nov-14 20:00N 37°46' W 122°42'0 0.5
2017-Nov-14 19:27N 37°46' W 122°42'0 0.3
2017-Nov-14 18:57N 37°46' W 122°42'1 2.8
2017-Nov-14 18:30N 37°46' W 122°41'1 2.8
2017-Nov-14 18:00N 37°46' W 122°39'1 1.2
2017-Nov-14 17:30N 37°46' W 122°40'1 2.2
2017-Nov-14 16:59N 37°46' W 122°41'1 1.1
2017-Nov-14 16:29N 37°46' W 122°42'2 3.9
2017-Nov-14 16:00N 37°46' W 122°40'0 0.9
2017-Nov-14 15:30N 37°46' W 122°39'1 2.1
2017-Nov-14 15:00N 37°46' W 122°41'1 1.5
2017-Nov-14 14:30N 37°47' W 122°41'1 2.6
2017-Nov-14 14:00N 37°46' W 122°40'1 2.0
2017-Nov-14 13:30N 37°45' W 122°40'1 2.9
2017-Nov-14 13:00N 37°46' W 122°40'3 4.8
2017-Nov-14 12:28N 37°44' W 122°41'1 1.6
2017-Nov-14 11:43N 37°44' W 122°42'2 7.6
2017-Nov-14 11:30N 37°46' W 122°42'1 1.4
2017-Nov-14 10:55N 37°46' W 122°41'1 3.1
2017-Nov-14 10:29N 37°46' W 122°40'1 1.4
2017-Nov-14 10:00N 37°46' W 122°39'1 1.7
2017-Nov-14 09:30N 37°46' W 122°40'3 2.5
2017-Nov-14 08:28N 37°45' W 122°43'1 2.6
2017-Nov-14 08:00N 37°45' W 122°41'1 2.6
2017-Nov-14 07:30N 37°46' W 122°40'1 1.9
2017-Nov-14 06:59N 37°46' W 122°39'1 2.5
2017-Nov-14 06:25N 37°46' W 122°40'0 0.0
2017-Nov-14 06:00N 37°46' W 122°40'1 2.1
2017-Nov-14 05:29N 37°45' W 122°39'1 1.3
2017-Nov-14 04:57N 37°45' W 122°40'1 2.8
2017-Nov-14 04:30N 37°45' W 122°41'1 0.6
2017-Nov-14 03:33N 37°45' W 122°41'1 6.8
2017-Nov-14 03:26N 37°46' W 122°40'1 2.2
2017-Nov-14 03:00N 37°47' W 122°40'0 1.0
2017-Nov-14 02:30N 37°46' W 122°40'1 2.9
2017-Nov-14 02:00N 37°45' W 122°41'1 1.7
2017-Nov-14 01:28N 37°45' W 122°40'0 0.6
2017-Nov-14 01:01N 37°45' W 122°40'2 3.6
2017-Nov-14 00:30N 37°44' W 122°42'1 1.6
2017-Nov-13 23:59N 37°44' W 122°41'1 2.1
2017-Nov-13 23:28N 37°45' W 122°39'0 0.6
2017-Nov-13 23:00N 37°44' W 122°40'1 2.4
2017-Nov-13 22:28N 37°45' W 122°41'2 3.6
2017-Nov-13 22:00N 37°47' W 122°40'1 0.0
2017-Nov-13 02:00N 37°46' W 122°40'0 0.9
2017-Nov-13 01:30N 37°46' W 122°41'1 2.8
2017-Nov-13 00:59N 37°45' W 122°41'1 2.8
2017-Nov-13 00:30N 37°46' W 122°39'0 0.9
2017-Nov-13 00:00N 37°46' W 122°39'1 2.8
2017-Nov-12 23:30N 37°45' W 122°40'1 1.5
2017-Nov-12 22:58N 37°46' W 122°41'1 1.0
2017-Nov-12 22:16N 37°46' W 122°40'1 3.3
2017-Nov-12 22:00N 37°45' W 122°40'1 2.1
2017-Nov-12 21:30N 37°46' W 122°40'0 0.2
2017-Nov-12 21:00N 37°46' W 122°40'0 1.0
2017-Nov-12 20:30N 37°45' W 122°39'2 2.5
2017-Nov-12 19:44N 37°46' W 122°41'1 2.5
2017-Nov-12 19:30N 37°47' W 122°42'2 3.3
2017-Nov-12 18:57N 37°46' W 122°40'1 2.6
2017-Nov-12 18:29N 37°46' W 122°38'1 2.4
2017-Nov-12 17:59N 37°45' W 122°40'1 2.6
2017-Nov-12 17:27N 37°45' W 122°42'1 2.6
2017-Nov-12 16:58N 37°46' W 122°40'0 1.0
2017-Nov-12 16:28N 37°45' W 122°41'1 1.6
2017-Nov-12 15:58N 37°45' W 122°41'1 3.2
2017-Nov-12 15:30N 37°46' W 122°40'1 1.0
2017-Nov-12 15:00N 37°46' W 122°40'1 1.9
2017-Nov-12 14:30N 37°46' W 122°39'2 3.2
2017-Nov-12 14:00N 37°46' W 122°41'1 1.1
2017-Nov-12 13:11N 37°45' W 122°41'1 1.9
2017-Nov-12 12:52N 37°45' W 122°41'1 3.1
2017-Nov-12 12:30N 37°46' W 122°40'1 1.8
2017-Nov-12 12:00N 37°47' W 122°39'1 2.3
2017-Nov-12 11:30N 37°47' W 122°40'1 2.5
2017-Nov-12 10:58N 37°46' W 122°39'1 2.1
2017-Nov-12 10:30N 37°45' W 122°39'1 1.8
2017-Nov-12 09:59N 37°46' W 122°40'1 1.5
2017-Nov-12 09:30N 37°46' W 122°40'0 0.1
2017-Nov-12 09:00N 37°46' W 122°40'2 2.0
2017-Nov-12 08:03N 37°47' W 122°42'0 2.5
2017-Nov-12 08:00N 37°47' W 122°42'2 2.5
2017-Nov-12 07:24N 37°46' W 122°40'2 3.6
2017-Nov-12 06:57N 37°45' W 122°38'1 1.3
2017-Nov-12 06:28N 37°45' W 122°39'2 3.1
2017-Nov-12 05:53N 37°45' W 122°41'2 4.2
2017-Nov-12 05:30N 37°45' W 122°39'1 1.3
2017-Nov-12 05:00N 37°45' W 122°39'2 3.5
2017-Nov-12 04:30N 37°46' W 122°40'1 2.3
2017-Nov-12 03:58N 37°47' W 122°42'1 2.7
2017-Nov-12 03:30N 37°46' W 122°40'1 2.5
2017-Nov-12 03:00N 37°45' W 122°39'1 1.6
2017-Nov-12 02:30N 37°46' W 122°40'1 1.1
2017-Nov-12 02:00N 37°46' W 122°40'1 1.0
2017-Nov-12 01:30N 37°46' W 122°40'1 2.0
2017-Nov-12 01:00N 37°46' W 122°41'1 1.3
2017-Nov-12 00:29N 37°46' W 122°40'1 2.5
2017-Nov-12 00:00N 37°46' W 122°39'2 1.9
2017-Nov-11 23:12N 37°45' W 122°40'0 1.5
2017-Nov-11 22:58N 37°45' W 122°40'1 1.3
2017-Nov-11 22:31N 37°45' W 122°41'1 2.5
2017-Nov-11 21:59N 37°46' W 122°41'1 1.8
2017-Nov-11 21:24N 37°45' W 122°40'1 2.5
2017-Nov-11 20:58N 37°46' W 122°40'1 1.8
2017-Nov-11 20:28N 37°45' W 122°40'1 2.5
2017-Nov-11 19:53N 37°45' W 122°42'0 0.1
2017-Nov-11 19:14N 37°45' W 122°42'1 2.6
2017-Nov-11 18:57N 37°45' W 122°41'1 1.9
2017-Nov-11 18:19N 37°44' W 122°42'0 0.8
2017-Nov-11 17:59N 37°44' W 122°41'2 2.4
2017-Nov-11 17:21N 37°45' W 122°42'0 0.3
2017-Nov-11 16:59N 37°45' W 122°42'2 2.6
2017-Nov-11 16:24N 37°46' W 122°41'1 2.5
2017-Nov-11 16:00N 37°46' W 122°40'1 1.5
2017-Nov-11 15:31N 37°46' W 122°40'1 1.4
2017-Nov-11 15:00N 37°47' W 122°40'0 0.4
2017-Nov-11 14:30N 37°47' W 122°40'1 2.9
2017-Nov-11 14:00N 37°46' W 122°39'2 2.7
2017-Nov-11 13:22N 37°44' W 122°40'1 1.9
2017-Nov-11 12:53N 37°45' W 122°41'1 1.7
2017-Nov-11 12:31N 37°45' W 122°40'1 1.7
2017-Nov-11 12:00N 37°45' W 122°41'1 2.2
2017-Nov-11 11:29N 37°46' W 122°42'1 2.1
2017-Nov-11 11:00N 37°47' W 122°41'1 2.3
2017-Nov-11 10:29N 37°46' W 122°40'1 1.8
2017-Nov-11 09:59N 37°45' W 122°40'1 0.6
2017-Nov-11 08:50N 37°45' W 122°41'1 3.0
2017-Nov-11 08:30N 37°45' W 122°40'1 1.1
2017-Nov-11 07:58N 37°46' W 122°39'1 1.7
2017-Nov-11 07:30N 37°46' W 122°40'1 1.5
2017-Nov-11 06:58N 37°47' W 122°41'1 1.2
2017-Nov-11 06:27N 37°47' W 122°41'1 2.4
2017-Nov-11 05:57N 37°46' W 122°40'2 3.9
2017-Nov-11 05:27N 37°45' W 122°38'1 2.0
2017-Nov-11 05:00N 37°45' W 122°39'0 0.9
2017-Nov-11 04:30N 37°45' W 122°39'1 2.0
2017-Nov-11 03:53N 37°46' W 122°39'1 1.4
2017-Nov-11 03:00N 37°45' W 122°40'0 0.4
2017-Nov-11 02:30N 37°45' W 122°40'1 0.7
2017-Nov-11 01:45N 37°45' W 122°41'1 3.8
2017-Nov-11 01:30N 37°45' W 122°40'1 0.9
2017-Nov-11 00:56N 37°45' W 122°39'2 1.6
2017-Nov-10 23:54N 37°45' W 122°41'1 2.1
2017-Nov-10 23:27N 37°46' W 122°40'1 1.7
2017-Nov-10 23:00N 37°46' W 122°39'1 1.5
2017-Nov-10 22:30N 37°46' W 122°40'3 4.7
2017-Nov-10 21:53N 37°44' W 122°42'2 4.1
2017-Nov-10 21:26N 37°45' W 122°40'1 0.6
2017-Nov-10 19:30N 37°46' W 122°40'1 2.0
2017-Nov-10 18:59N 37°47' W 122°40'2 1.2
2017-Nov-10 17:23N 37°45' W 122°41'1 2.2
2017-Nov-10 17:00N 37°45' W 122°40'1 2.7
2017-Nov-10 16:30N 37°46' W 122°38'510.8
2017-Nov-10 16:00N 37°48' W 122°32'3 6.1
2017-Nov-10 15:30N 37°47' W 122°36'4 6.3
2017-Nov-10 14:56N 37°45' W 122°40'1 1.3
2017-Nov-10 14:30N 37°45' W 122°39'1 2.6
2017-Nov-10 14:00N 37°46' W 122°39'2 2.6
2017-Nov-10 13:19N 37°45' W 122°41'1 2.0
2017-Nov-10 13:00N 37°45' W 122°40'1 1.6
2017-Nov-10 12:30N 37°45' W 122°39'2 3.4
2017-Nov-10 11:48N 37°44' W 122°41'2 3.1
2017-Nov-10 11:12N 37°45' W 122°40'1 2.1
2017-Nov-10 10:57N 37°46' W 122°40'0 0.7
2017-Nov-10 10:29N 37°45' W 122°40'1 0.9
2017-Nov-10 09:54N 37°45' W 122°40'1 2.9
2017-Nov-10 09:30N 37°44' W 122°41'2 3.7
2017-Nov-10 09:00N 37°45' W 122°39'0 0.8
2017-Nov-10 08:30N 37°45' W 122°40'1 2.9
2017-Nov-10 07:59N 37°44' W 122°41'1 2.0
2017-Nov-10 07:30N 37°45' W 122°41'714.7
2017-Nov-10 07:00N 37°48' W 122°32'3 5.3
2017-Nov-10 06:30N 37°49' W 122°29'611.8
2017-Nov-10 06:00N 37°47' W 122°36'3 6.8
2017-Nov-10 05:30N 37°45' W 122°40'2 2.4
2017-Nov-10 04:49N 37°44' W 122°41'2 6.6
2017-Nov-10 04:30N 37°46' W 122°40'2 3.3
2017-Nov-10 03:53N 37°44' W 122°41'1 1.5
2017-Nov-10 03:26N 37°44' W 122°41'1 2.0
2017-Nov-10 02:41N 37°46' W 122°40'0 1.2
2017-Nov-10 02:26N 37°46' W 122°40'2 5.0
2017-Nov-10 02:01N 37°44' W 122°42'2 2.5
2017-Nov-10 01:16N 37°46' W 122°40'1 1.8
2017-Nov-10 00:38N 37°44' W 122°40'0 2.6
2017-Nov-10 00:30N 37°45' W 122°39'1 1.4
2017-Nov-09 23:59N 37°45' W 122°39'2 2.8
2017-Nov-09 23:24N 37°46' W 122°41'0 0.9
2017-Nov-09 22:54N 37°46' W 122°41'1 1.9
2017-Nov-09 22:30N 37°46' W 122°40'1 1.0
2017-Nov-09 21:58N 37°46' W 122°40'1 1.8
2017-Nov-09 21:28N 37°45' W 122°41'1 2.3
2017-Nov-09 21:01N 37°46' W 122°40'5 9.8
2017-Nov-09 20:30N 37°47' W 122°34'611.5
2017-Nov-09 20:01N 37°49' W 122°27'3 5.8
2017-Nov-09 19:31N 37°48' W 122°24'0 0.0
2017-Nov-09 19:01N 37°48' W 122°24'0 0.0
2017-Nov-09 18:31N 37°48' W 122°24'0 0.0
2017-Nov-09 18:00N 37°48' W 122°24'1 3.0
2017-Nov-09 17:30N 37°49' W 122°23'1 1.8
2017-Nov-09 17:00N 37°50' W 122°24'2 4.3
2017-Nov-09 16:31N 37°48' W 122°24'0 0.0
2017-Nov-09 16:01N 37°48' W 122°24'0 0.0
2017-Nov-09 15:31N 37°48' W 122°24'0 0.0
2017-Nov-09 15:01N 37°48' W 122°24'0 0.0
2017-Nov-09 14:31N 37°48' W 122°24'0 0.0
2017-Nov-09 14:01N 37°48' W 122°24'0 0.0
2017-Nov-09 13:30N 37°48' W 122°24'0 0.0
2017-Nov-09 13:00N 37°48' W 122°24'0 0.0
2017-Nov-09 12:30N 37°48' W 122°24'0 0.0
2017-Nov-09 12:00N 37°48' W 122°24'0 0.0
2017-Nov-09 11:31N 37°48' W 122°24'0 0.0
2017-Nov-09 11:01N 37°48' W 122°24'0 0.0
2017-Nov-09 10:31N 37°48' W 122°24'0 0.0
2017-Nov-09 10:01N 37°48' W 122°24'0 0.0
2017-Nov-09 09:31N 37°48' W 122°24'0 0.0
2017-Nov-09 09:01N 37°48' W 122°24'0 0.0
2017-Nov-09 08:30N 37°48' W 122°24'0 0.0
2017-Nov-09 08:00N 37°48' W 122°24'0 0.0
2017-Nov-09 07:31N 37°48' W 122°24'0 0.0
2017-Nov-09 07:00N 37°48' W 122°24'0 0.0
2017-Nov-09 06:30N 37°48' W 122°24'0 0.0
2017-Nov-09 06:00N 37°48' W 122°24'0 0.0
2017-Nov-09 05:30N 37°48' W 122°24'0 0.0
2017-Nov-09 05:00N 37°48' W 122°24'0 0.0
2017-Nov-09 04:31N 37°48' W 122°24'0 0.0
2017-Nov-09 04:01N 37°48' W 122°24'0 0.0
2017-Nov-09 03:31N 37°48' W 122°24'0 0.0
2017-Nov-09 03:00N 37°48' W 122°24'0 0.0
2017-Nov-09 02:30N 37°48' W 122°24'0 0.0
2017-Nov-09 02:01N 37°48' W 122°24'0 0.0
2017-Nov-09 01:30N 37°48' W 122°24'0 0.0
2017-Nov-09 01:01N 37°48' W 122°24'0 0.0
2017-Nov-09 00:30N 37°48' W 122°24'0 0.0
2017-Nov-09 00:00N 37°48' W 122°24'0 0.0
2017-Nov-08 23:30N 37°48' W 122°24'0 0.0
2017-Nov-08 23:01N 37°48' W 122°24'0 0.0
2017-Nov-08 22:30N 37°48' W 122°24'0 0.0
2017-Nov-08 22:01N 37°48' W 122°24'0 0.0
2017-Nov-08 21:30N 37°48' W 122°24'  

Dump ship's entire track history